Terminal Aerodrome Forecast
Issued by NWS

Home | Current Version | Previous Version | Text Only | Print | Product List | Glossary On
Versions: 1 2 3 4 5 6 7 8 9 10 11 12 13 14 15 16 17 18 19 20 21 22 23 24
000
FTUS45 KGJT 241355 AAA
TAFEGE
TAF AMD
KEGE 241355Z 2414/2512 09004KT P6SM VCSH SCT030 OVC060
      TEMPO 2414/2418 3SM -SHSN BR OVC025
     FM241800 23007KT 5SM -SHSN BR OVC030
     FM242000 24007KT P6SM VCSH BKN035
     FM250600 00000KT P6SM BKN030=

USA.gov is the U.S. government's official web portal to all federal, state and local government web resources and services.